createdAt,value
2019-04-05T00:00:43.693Z,21.25
2019-04-05T00:01:45.908Z,21.25
2019-04-05T00:02:48.198Z,21.27
2019-04-05T00:03:50.664Z,21.24
2019-04-05T00:04:52.980Z,21.28
2019-04-05T00:05:55.359Z,21.29
2019-04-05T00:06:57.965Z,21.22
2019-04-05T00:08:00.353Z,21.24
2019-04-05T00:09:05.295Z,21.23
2019-04-05T00:10:08.220Z,21.29
2019-04-05T00:11:11.393Z,21.22
2019-04-05T00:12:13.530Z,21.24
2019-04-05T00:13:15.530Z,21.23
2019-04-05T00:14:17.638Z,21.17
2019-04-05T00:15:20.322Z,21.24
2019-04-05T00:16:22.083Z,21.23
2019-04-05T00:17:24.253Z,21.19
2019-04-05T00:18:26.357Z,21.19
2019-04-05T00:19:28.487Z,21.18
2019-04-05T00:20:30.594Z,21.16
2019-04-05T00:21:32.795Z,21.13
2019-04-05T00:22:35.097Z,21.20
2019-04-05T00:23:37.516Z,21.22
2019-04-05T00:24:39.884Z,21.18
2019-04-05T00:25:43.128Z,21.18
2019-04-05T00:26:45.485Z,21.20
2019-04-05T00:27:47.519Z,21.21
2019-04-05T00:28:51.729Z,21.18
2019-04-05T00:29:53.794Z,21.17
2019-04-05T00:30:56.122Z,21.14
2019-04-05T00:31:58.205Z,21.15
2019-04-05T00:33:00.257Z,21.16
2019-04-05T00:34:04.169Z,21.12
2019-04-05T00:35:06.819Z,21.13
2019-04-05T00:36:09.111Z,21.13
2019-04-05T00:37:11.697Z,21.12
2019-04-05T00:38:14.137Z,21.13
2019-04-05T00:39:16.436Z,21.17
2019-04-05T00:40:18.456Z,21.11
2019-04-05T00:41:21.118Z,21.11
2019-04-05T00:42:23.569Z,21.15
2019-04-05T00:43:25.875Z,21.14
2019-04-05T00:44:27.973Z,21.11
2019-04-05T00:45:30.299Z,21.11
2019-04-05T00:46:32.551Z,21.08
2019-04-05T00:47:35.600Z,21.08
2019-04-05T00:48:37.679Z,21.07
2019-04-05T00:49:40.058Z,21.10
2019-04-05T00:50:42.158Z,21.06
2019-04-05T00:51:44.421Z,21.12
2019-04-05T00:52:46.747Z,21.07
2019-04-05T00:53:49.148Z,21.07
2019-04-05T00:54:51.683Z,21.05
2019-04-05T00:55:53.813Z,21.05
2019-04-05T00:56:56.177Z,21.08
2019-04-05T00:57:58.184Z,21.11
2019-04-05T00:59:00.603Z,21.12
2019-04-05T01:00:05.062Z,21.11
2019-04-05T01:01:07.416Z,21.10
2019-04-05T01:02:09.447Z,21.10
2019-04-05T01:03:13.155Z,21.10
2019-04-05T01:04:15.848Z,21.09
2019-04-05T01:05:18.523Z,21.11
2019-04-05T01:06:21.272Z,21.08
2019-04-05T01:07:23.614Z,21.07
2019-04-05T01:08:25.977Z,21.05
2019-04-05T01:09:27.755Z,21.07
2019-04-05T01:10:30.255Z,21.06
2019-04-05T01:11:32.453Z,21.06
2019-04-05T01:12:35.880Z,21.10
2019-04-05T01:13:37.671Z,21.06
2019-04-05T01:14:40.186Z,21.11
2019-04-05T01:15:42.201Z,21.11
2019-04-05T01:16:44.490Z,21.12
2019-04-05T01:17:46.979Z,21.09
2019-04-05T01:18:48.792Z,21.06
2019-04-05T01:19:53.882Z,21.07
2019-04-05T01:21:01.462Z,21.05
2019-04-05T01:22:04.832Z,21.08
2019-04-05T01:23:09.216Z,21.05
2019-04-05T01:24:12.532Z,21.03
2019-04-05T01:25:15.537Z,21.03
2019-04-05T01:26:23.205Z,21.06
2019-04-05T01:27:26.289Z,21.07
2019-04-05T01:28:28.681Z,21.08
2019-04-05T01:29:30.945Z,21.09
2019-04-05T01:30:33.403Z,21.08
2019-04-05T01:31:35.611Z,21.07
2019-04-05T01:32:37.851Z,21.08
2019-04-05T01:33:40.033Z,21.04
2019-04-05T01:34:42.337Z,21.07
2019-04-05T01:35:44.741Z,21.08
2019-04-05T01:36:47.029Z,21.02
2019-04-05T01:37:49.743Z,21.06
2019-04-05T01:38:51.695Z,21.06
2019-04-05T01:39:53.609Z,21.04
2019-04-05T01:40:56.763Z,21.05
2019-04-05T01:41:59.292Z,21.05
2019-04-05T01:43:01.371Z,21.04
2019-04-05T01:44:03.609Z,21.02
2019-04-05T01:45:07.361Z,21.01
2019-04-05T01:46:09.411Z,21.03
2019-04-05T01:47:12.313Z,21.05
2019-04-05T01:48:14.091Z,21.08
2019-04-05T01:49:16.523Z,21.05
2019-04-05T01:50:19.202Z,21.06
2019-04-05T01:51:21.824Z,21.10
2019-04-05T01:52:24.013Z,21.07
2019-04-05T01:53:26.270Z,21.08
2019-04-05T01:54:29.216Z,21.05
2019-04-05T01:55:31.716Z,21.07
2019-04-05T01:56:34.234Z,21.08
2019-04-05T01:57:37.006Z,21.05
2019-04-05T01:58:38.783Z,21.02
2019-04-05T01:59:42.232Z,21.06
2019-04-05T02:00:44.600Z,21.01
2019-04-05T02:01:47.163Z,20.98
2019-04-05T02:02:49.382Z,21.01
2019-04-05T02:03:51.082Z,21.00
2019-04-05T02:04:53.727Z,20.99
2019-04-05T02:05:55.822Z,20.97
2019-04-05T02:06:58.434Z,20.97
2019-04-05T02:08:00.671Z,20.98
2019-04-05T02:09:08.478Z,20.99
2019-04-05T02:10:11.161Z,20.98
2019-04-05T02:11:13.506Z,21.00
2019-04-05T02:12:16.995Z,20.95
2019-04-05T02:13:18.932Z,21.00
2019-04-05T02:14:21.715Z,21.02
2019-04-05T02:15:29.574Z,20.94
2019-04-05T02:16:31.775Z,20.94
2019-04-05T02:17:35.933Z,20.92
2019-04-05T02:18:38.016Z,20.89
2019-04-05T02:19:40.333Z,20.90
2019-04-05T02:20:42.458Z,20.95
2019-04-05T02:21:44.350Z,20.94
2019-04-05T02:22:46.793Z,20.94
2019-04-05T02:23:50.552Z,20.91
2019-04-05T02:24:53.095Z,20.92
2019-04-05T02:25:55.315Z,20.88
2019-04-05T02:26:57.757Z,20.90
2019-04-05T02:28:01.523Z,20.87
2019-04-05T02:29:04.233Z,20.87
2019-04-05T02:30:08.263Z,20.91
2019-04-05T02:31:10.301Z,20.84
2019-04-05T02:32:12.605Z,20.85
2019-04-05T02:33:15.270Z,20.83
2019-04-05T02:34:17.184Z,20.80
2019-04-05T02:35:20.011Z,20.87
2019-04-05T02:36:22.407Z,20.89
2019-04-05T02:37:24.999Z,20.90
2019-04-05T02:38:27.485Z,20.87
2019-04-05T02:39:29.656Z,20.93
2019-04-05T02:40:34.864Z,20.93
2019-04-05T02:41:38.918Z,20.94
2019-04-05T02:42:43.316Z,20.96
2019-04-05T02:43:46.579Z,20.92
2019-04-05T02:44:51.092Z,20.93
2019-04-05T02:45:54.490Z,20.91
2019-04-05T02:46:56.601Z,20.98
2019-04-05T02:48:03.636Z,20.98
2019-04-05T02:49:06.021Z,20.95
2019-04-05T02:50:09.072Z,21.02
2019-04-05T02:51:15.001Z,20.96
2019-04-05T02:52:19.223Z,20.99
2019-04-05T02:53:22.562Z,20.99
2019-04-05T02:54:25.288Z,21.03
2019-04-05T02:55:29.945Z,21.02
2019-04-05T02:56:33.037Z,21.00
2019-04-05T02:57:35.779Z,20.99
2019-04-05T02:58:39.830Z,21.00
2019-04-05T02:59:43.124Z,21.04
2019-04-05T03:00:45.606Z,21.00
2019-04-05T03:01:48.850Z,21.04
2019-04-05T03:02:52.155Z,20.99
2019-04-05T03:03:54.823Z,21.03
2019-04-05T03:04:57.186Z,20.96
2019-04-05T03:05:59.478Z,20.98
2019-04-05T03:07:02.328Z,20.97
2019-04-05T03:08:05.469Z,20.96
2019-04-05T03:09:08.841Z,20.93
2019-04-05T03:10:45.594Z,20.94
2019-04-05T03:11:48.453Z,20.95
2019-04-05T03:12:50.458Z,21.04
2019-04-05T03:13:56.646Z,21.03
2019-04-05T03:15:01.850Z,21.00
2019-04-05T03:16:09.743Z,21.01
2019-04-05T03:17:12.619Z,20.99
2019-04-05T03:18:15.377Z,21.01
2019-04-05T03:19:22.340Z,21.00
2019-04-05T03:20:24.894Z,20.99
2019-04-05T03:21:28.330Z,20.97
2019-04-05T03:22:33.982Z,20.99
2019-04-05T03:23:41.414Z,20.99
2019-04-05T03:24:44.904Z,21.03
2019-04-05T03:25:48.450Z,21.04
2019-04-05T03:26:55.819Z,21.01
2019-04-05T03:28:01.076Z,21.01
2019-04-05T03:29:07.319Z,21.02
2019-04-05T03:30:09.751Z,21.05
2019-04-05T03:31:12.742Z,21.04
2019-04-05T03:32:16.070Z,21.04
2019-04-05T03:33:18.738Z,21.04
2019-04-05T03:34:21.483Z,21.01
2019-04-05T03:35:24.720Z,21.03
2019-04-05T03:36:27.107Z,21.09
2019-04-05T03:37:28.958Z,21.10
2019-04-05T03:38:31.519Z,21.09
2019-04-05T03:39:33.994Z,21.08
2019-04-05T03:40:37.403Z,21.09
2019-04-05T03:41:40.245Z,21.09
2019-04-05T03:42:42.622Z,21.07
2019-04-05T03:43:45.108Z,21.07
2019-04-05T03:44:47.612Z,21.08
2019-04-05T03:45:49.780Z,21.11
2019-04-05T03:46:56.791Z,21.11
2019-04-05T03:47:57.620Z,21.08
2019-04-05T03:48:59.666Z,21.18
2019-04-05T03:50:05.922Z,21.13
2019-04-05T03:51:08.018Z,21.08
2019-04-05T03:52:10.524Z,21.07
2019-04-05T03:53:14.019Z,21.09
2019-04-05T03:54:16.266Z,21.06
2019-04-05T03:55:18.391Z,21.05
2019-04-05T03:56:20.899Z,21.05
2019-04-05T03:57:24.007Z,21.08
2019-04-05T03:58:27.106Z,21.07
2019-04-05T03:59:29.467Z,21.04
2019-04-05T04:00:32.404Z,21.05
2019-04-05T04:01:35.050Z,21.07
2019-04-05T04:02:37.243Z,21.06
2019-04-05T04:03:39.312Z,21.04
2019-04-05T04:04:42.436Z,21.05
2019-04-05T04:05:44.718Z,21.07
2019-04-05T04:06:46.650Z,21.09
2019-04-05T04:07:49.034Z,21.06
2019-04-05T04:08:51.447Z,21.06
2019-04-05T04:09:53.536Z,21.06
2019-04-05T04:10:55.892Z,21.05
2019-04-05T04:11:58.669Z,21.01
2019-04-05T04:13:00.964Z,21.07
2019-04-05T04:14:04.177Z,21.06
2019-04-05T04:15:14.229Z,21.07
2019-04-05T04:16:17.798Z,21.05
2019-04-05T04:17:20.573Z,21.10
2019-04-05T04:18:22.925Z,21.02
2019-04-05T04:19:25.846Z,21.02
2019-04-05T04:20:42.939Z,21.00
2019-04-05T04:21:59.416Z,20.98
2019-04-05T04:23:02.676Z,21.02
2019-04-05T04:24:06.140Z,20.98
2019-04-05T04:25:08.303Z,20.97
2019-04-05T04:26:11.147Z,20.93
2019-04-05T04:27:14.538Z,20.95
2019-04-05T04:28:16.828Z,20.95
2019-04-05T04:29:19.719Z,20.95
2019-04-05T04:30:22.142Z,20.95
2019-04-05T04:31:24.481Z,20.92
2019-04-05T04:32:28.801Z,20.94
2019-04-05T04:33:31.583Z,20.92
2019-04-05T04:34:34.102Z,20.94
2019-04-05T04:35:36.941Z,20.96
2019-04-05T04:36:39.273Z,20.91
2019-04-05T04:37:41.136Z,20.91
2019-04-05T04:38:44.268Z,20.93
2019-04-05T04:39:47.122Z,20.91
2019-04-05T04:40:49.408Z,20.90
2019-04-05T04:41:51.919Z,20.88
2019-04-05T04:42:54.649Z,20.86
2019-04-05T04:43:57.733Z,20.94
2019-04-05T04:45:11.811Z,20.84
2019-04-05T04:46:06.385Z,20.84
2019-04-05T04:47:10.003Z,20.87
2019-04-05T04:48:12.491Z,20.83
2019-04-05T04:49:15.098Z,20.84
2019-04-05T04:50:18.127Z,20.81
2019-04-05T04:51:20.350Z,20.84
2019-04-05T04:52:22.764Z,20.82
2019-04-05T04:53:25.471Z,20.85
2019-04-05T04:54:28.526Z,20.88
2019-04-05T04:55:31.106Z,20.91
2019-04-05T04:56:34.636Z,20.92
2019-04-05T04:57:37.527Z,20.90
2019-04-05T04:58:39.922Z,20.92
2019-04-05T04:59:42.681Z,20.90
2019-04-05T05:00:44.579Z,21.03
2019-04-05T05:01:47.578Z,21.00
2019-04-05T05:02:50.020Z,21.02
2019-04-05T05:03:53.456Z,20.97
2019-04-05T05:04:55.820Z,20.93
2019-04-05T05:05:58.236Z,20.94
2019-04-05T05:07:00.162Z,20.96
2019-04-05T05:08:02.951Z,20.78
2019-04-05T05:09:06.450Z,20.78
2019-04-05T05:10:09.013Z,20.79
2019-04-05T05:11:14.884Z,20.75
2019-04-05T05:12:15.700Z,20.78
2019-04-05T05:13:18.029Z,20.78
2019-04-05T05:14:20.819Z,20.75
2019-04-05T05:15:23.546Z,20.73
2019-04-05T05:16:26.048Z,20.72
2019-04-05T05:17:37.955Z,20.74
2019-04-05T05:18:33.003Z,20.74
2019-04-05T05:19:35.321Z,20.83
2019-04-05T05:20:37.644Z,20.81
2019-04-05T05:21:39.721Z,20.80
2019-04-05T05:22:42.382Z,20.83
2019-04-05T05:23:44.673Z,20.85
2019-04-05T05:24:47.138Z,20.94
2019-04-05T05:25:50.246Z,20.95
2019-04-05T05:26:53.211Z,20.97
2019-04-05T05:27:55.464Z,21.00
2019-04-05T05:28:57.772Z,21.00
2019-04-05T05:30:00.702Z,21.05
2019-04-05T05:31:03.703Z,21.09
2019-04-05T05:32:09.496Z,21.13
2019-04-05T05:33:10.789Z,21.14
2019-04-05T05:34:13.776Z,21.16
2019-04-05T05:35:15.935Z,21.16
2019-04-05T05:36:18.901Z,21.18
2019-04-05T05:37:21.199Z,21.23
2019-04-05T05:38:23.456Z,21.21
2019-04-05T05:39:25.859Z,21.23
2019-04-05T05:40:34.743Z,21.20
2019-04-05T05:41:31.951Z,21.20
2019-04-05T05:42:34.600Z,21.22
2019-04-05T05:43:36.885Z,21.26
2019-04-05T05:44:39.052Z,21.30
2019-04-05T05:45:41.432Z,21.28
2019-04-05T05:46:44.799Z,21.32
2019-04-05T05:47:52.051Z,21.37
2019-04-05T05:48:51.035Z,21.38
2019-04-05T05:49:53.460Z,21.37
2019-04-05T05:50:56.246Z,21.43
2019-04-05T05:51:59.452Z,21.42
2019-04-05T05:53:02.036Z,21.42
2019-04-05T05:54:04.490Z,21.48
2019-04-05T05:55:07.586Z,21.52
2019-04-05T05:56:09.767Z,21.54
2019-04-05T05:57:12.354Z,21.55
2019-04-05T05:58:14.317Z,21.59
2019-04-05T05:59:16.756Z,21.65
2019-04-05T06:00:21.266Z,21.65
2019-04-05T06:01:23.969Z,21.64
2019-04-05T06:02:26.548Z,21.65
2019-04-05T06:03:28.825Z,21.68
2019-04-05T06:04:31.170Z,21.69
2019-04-05T06:05:33.847Z,21.73
2019-04-05T06:06:36.417Z,21.69
2019-04-05T06:07:38.543Z,21.73
2019-04-05T06:08:41.086Z,21.68
2019-04-05T06:09:47.610Z,21.68
2019-04-05T06:10:48.784Z,21.68
2019-04-05T06:11:51.270Z,21.72
2019-04-05T06:12:53.369Z,21.76
2019-04-05T06:13:55.777Z,21.72
2019-04-05T06:14:58.303Z,21.67
2019-04-05T06:16:00.355Z,21.70
2019-04-05T06:17:02.837Z,21.73
2019-04-05T06:18:05.308Z,21.74
2019-04-05T06:19:07.744Z,21.78
2019-04-05T06:20:11.923Z,21.78
2019-04-05T06:21:13.959Z,21.79
2019-04-05T06:22:15.940Z,21.80
2019-04-05T06:23:17.927Z,21.87
2019-04-05T06:24:20.209Z,21.86
2019-04-05T06:25:22.791Z,21.90
2019-04-05T06:26:25.312Z,21.87
2019-04-05T06:27:28.538Z,21.82
2019-04-05T06:28:30.912Z,21.80
2019-04-05T06:29:33.611Z,21.82
2019-04-05T06:30:36.082Z,21.77
2019-04-05T06:31:38.445Z,21.65
2019-04-05T06:32:40.721Z,21.67
2019-04-05T06:33:42.858Z,21.69
2019-04-05T06:34:44.932Z,21.71
2019-04-05T06:35:47.413Z,21.74
2019-04-05T06:36:51.273Z,21.76
2019-04-05T06:37:53.496Z,21.82
2019-04-05T06:38:55.689Z,21.88
2019-04-05T06:39:57.479Z,21.96
2019-04-05T06:40:59.882Z,22.00
2019-04-05T06:42:01.975Z,22.02
2019-04-05T06:43:06.669Z,22.08
2019-04-05T06:44:08.489Z,22.09
2019-04-05T06:45:12.073Z,22.17
2019-04-05T06:46:14.410Z,22.18
2019-04-05T06:47:16.633Z,22.14
2019-04-05T06:48:20.045Z,22.13
2019-04-05T06:49:22.439Z,22.19
2019-04-05T06:50:25.118Z,22.21
2019-04-05T06:51:27.066Z,22.29
2019-04-05T06:52:28.740Z,22.30
2019-04-05T06:53:30.879Z,22.34
2019-04-05T06:54:32.719Z,22.36
2019-04-05T06:55:34.931Z,22.41
2019-04-05T06:56:37.167Z,22.44
2019-04-05T06:57:40.764Z,22.46
2019-04-05T06:58:46.132Z,22.47
2019-04-05T06:59:50.024Z,22.48
2019-04-05T07:00:57.207Z,22.52
2019-04-05T07:01:56.502Z,22.56
2019-04-05T07:03:00.115Z,22.58
2019-04-05T07:04:03.149Z,22.56
2019-04-05T07:05:06.154Z,22.60
2019-04-05T07:06:08.490Z,22.61
2019-04-05T07:07:11.120Z,22.59
2019-04-05T07:08:13.799Z,22.60
2019-04-05T07:09:17.488Z,22.61
2019-04-05T07:10:19.378Z,22.66
2019-04-05T07:11:21.940Z,22.68
2019-04-05T07:12:24.912Z,22.66
2019-04-05T07:13:27.719Z,22.69
2019-04-05T07:14:29.985Z,22.70
2019-04-05T07:15:32.559Z,22.69
2019-04-05T07:16:35.531Z,22.68
2019-04-05T07:17:38.098Z,22.71
2019-04-05T07:18:40.183Z,22.72
2019-04-05T07:19:42.380Z,22.75
2019-04-05T07:20:44.668Z,22.73
2019-04-05T07:21:47.420Z,22.75
2019-04-05T07:22:49.909Z,22.79
2019-04-05T07:23:52.345Z,22.74
2019-04-05T07:24:54.723Z,22.80
2019-04-05T07:25:56.788Z,22.83
2019-04-05T07:26:59.065Z,22.84
2019-04-05T07:28:02.134Z,22.91
2019-04-05T07:29:04.744Z,22.93
2019-04-05T07:30:08.913Z,22.90
2019-04-05T07:31:11.257Z,22.94
2019-04-05T07:32:13.647Z,22.92
2019-04-05T07:33:16.092Z,22.93
2019-04-05T07:34:18.282Z,22.96
2019-04-05T07:35:32.393Z,22.97
2019-04-05T07:36:24.205Z,22.95
2019-04-05T07:37:26.768Z,22.99
2019-04-05T07:38:29.389Z,23.01
2019-04-05T07:39:31.816Z,23.01
2019-04-05T07:40:34.048Z,22.99
2019-04-05T07:41:36.603Z,23.05
2019-04-05T07:42:38.552Z,23.10
2019-04-05T07:43:40.546Z,23.08
2019-04-05T07:44:42.860Z,23.07
2019-04-05T07:45:46.099Z,23.11
2019-04-05T07:46:48.582Z,23.12
2019-04-05T07:47:51.081Z,23.09
2019-04-05T07:48:53.131Z,23.12
2019-04-05T07:49:55.561Z,23.13
2019-04-05T07:50:57.800Z,23.11
2019-04-05T07:52:00.728Z,23.14
2019-04-05T07:53:03.211Z,23.18
2019-04-05T07:54:05.498Z,23.18
2019-04-05T07:55:08.388Z,23.20
2019-04-05T07:56:10.572Z,23.19
2019-04-05T07:57:13.138Z,23.22
2019-04-05T07:58:15.014Z,23.24
2019-04-05T07:59:17.166Z,23.23
2019-04-05T08:00:51.832Z,23.24
2019-04-05T08:01:53.938Z,23.28
2019-04-05T08:02:56.425Z,23.32
2019-04-05T08:03:58.331Z,23.31
2019-04-05T08:05:00.670Z,23.29
2019-04-05T08:06:03.817Z,23.33
2019-04-05T08:07:06.011Z,23.30
2019-04-05T08:08:15.091Z,23.33
2019-04-05T08:09:18.002Z,23.33
2019-04-05T08:10:22.207Z,23.35
2019-04-05T08:11:26.638Z,23.40
2019-04-05T08:12:28.815Z,23.38
2019-04-05T08:13:34.716Z,23.43
2019-04-05T08:14:38.237Z,23.44
2019-04-05T08:15:41.247Z,23.45
2019-04-05T08:16:43.481Z,23.46
2019-04-05T08:17:46.023Z,23.47
2019-04-05T08:18:57.692Z,23.47
2019-04-05T08:19:54.186Z,23.44
2019-04-05T08:20:56.270Z,23.46
2019-04-05T08:21:58.076Z,23.47
2019-04-05T08:23:00.246Z,23.51
2019-04-05T08:24:03.163Z,23.55
2019-04-05T08:25:05.457Z,23.57
2019-04-05T08:26:07.830Z,23.55
2019-04-05T08:27:09.913Z,23.58
2019-04-05T08:28:11.733Z,23.62
2019-04-05T08:29:14.247Z,23.61
2019-04-05T08:30:16.887Z,23.62
2019-04-05T08:31:22.846Z,23.63
2019-04-05T08:32:25.173Z,23.65
2019-04-05T08:33:27.241Z,23.67
2019-04-05T08:34:32.522Z,23.71
2019-04-05T08:35:34.919Z,23.73
2019-04-05T08:36:37.093Z,23.75
2019-04-05T08:37:40.882Z,23.74
2019-04-05T08:38:43.943Z,23.75
2019-04-05T08:39:45.724Z,23.77
2019-04-05T08:40:47.983Z,23.79
2019-04-05T08:41:50.309Z,23.80
2019-04-05T08:42:52.322Z,23.83
2019-04-05T08:43:54.910Z,23.83
2019-04-05T08:44:57.236Z,23.87
2019-04-05T08:45:58.903Z,23.90
2019-04-05T08:47:01.335Z,23.92
2019-04-05T08:48:04.361Z,23.93
2019-04-05T08:49:10.968Z,23.95
2019-04-05T08:50:11.075Z,23.94
2019-04-05T08:51:13.272Z,23.97
2019-04-05T08:52:15.494Z,23.96
2019-04-05T08:53:17.766Z,24.00
2019-04-05T08:54:31.835Z,23.99
2019-04-05T08:55:23.841Z,24.02
2019-04-05T08:56:26.194Z,24.04
2019-04-05T08:57:28.241Z,24.06
2019-04-05T08:58:33.593Z,24.04
2019-04-05T08:59:35.334Z,24.09
2019-04-05T09:00:37.604Z,24.11
2019-04-05T09:01:40.221Z,24.15
2019-04-05T09:02:42.473Z,24.15
2019-04-05T09:03:44.367Z,24.18
2019-04-05T09:04:46.782Z,24.21
2019-04-05T09:05:48.876Z,24.21
2019-04-05T09:06:51.132Z,24.27
2019-04-05T09:07:53.716Z,24.30
2019-04-05T09:08:55.963Z,24.33
2019-04-05T09:09:58.499Z,24.37
2019-04-05T09:11:00.883Z,24.38
2019-04-05T09:12:03.256Z,24.40
2019-04-05T09:13:05.710Z,24.40
2019-04-05T09:14:08.539Z,24.43
2019-04-05T09:15:11.594Z,24.48
2019-04-05T09:16:14.994Z,24.50
2019-04-05T09:17:18.290Z,24.51
2019-04-05T09:18:20.291Z,24.55
2019-04-05T09:19:24.098Z,24.58
2019-04-05T09:20:26.335Z,24.60
2019-04-05T09:21:28.965Z,24.61
2019-04-05T09:22:30.862Z,24.63
2019-04-05T09:23:33.065Z,24.68
2019-04-05T09:24:35.383Z,24.68
2019-04-05T09:25:37.995Z,24.68
2019-04-05T09:26:39.983Z,24.70
2019-04-05T09:27:42.446Z,24.71
2019-04-05T09:28:44.217Z,24.75
2019-04-05T09:29:46.555Z,24.77
2019-04-05T09:30:51.778Z,24.80
2019-04-05T09:31:53.659Z,24.81
2019-04-05T09:32:55.950Z,24.82
2019-04-05T09:33:58.008Z,24.85
2019-04-05T09:35:00.031Z,24.86
2019-04-05T09:36:02.591Z,24.86
2019-04-05T09:37:04.796Z,24.89
2019-04-05T09:38:07.041Z,24.90
2019-04-05T09:39:15.300Z,24.92
2019-04-05T09:40:14.823Z,24.92
2019-04-05T09:41:17.165Z,24.92
2019-04-05T09:42:19.058Z,24.92
2019-04-05T09:43:21.138Z,24.90
2019-04-05T09:44:25.449Z,24.94
2019-04-05T09:45:27.618Z,24.95
2019-04-05T09:46:30.056Z,24.97
2019-04-05T09:47:32.364Z,24.94
2019-04-05T09:48:34.591Z,24.92
2019-04-05T09:49:37.342Z,24.97
2019-04-05T09:50:39.840Z,25.00
2019-04-05T09:51:41.996Z,25.00
2019-04-05T09:52:44.445Z,25.01
2019-04-05T09:53:46.638Z,25.01
2019-04-05T09:54:48.688Z,25.00
2019-04-05T09:55:52.108Z,25.00
2019-04-05T09:56:56.774Z,25.00
2019-04-05T09:57:58.378Z,25.04
2019-04-05T09:59:00.701Z,25.02
2019-04-05T10:00:12.146Z,25.05
2019-04-05T10:01:14.717Z,25.06
2019-04-05T10:02:17.324Z,25.09
2019-04-05T10:03:19.690Z,25.05
2019-04-05T10:04:21.512Z,25.04
2019-04-05T10:05:24.562Z,25.01
2019-04-05T10:06:26.713Z,24.94
2019-04-05T10:07:28.507Z,25.04
2019-04-05T10:08:30.920Z,25.05
2019-04-05T10:09:32.590Z,25.05
2019-04-05T10:10:34.953Z,25.05
2019-04-05T10:11:37.182Z,25.08
2019-04-05T10:12:39.232Z,25.05
2019-04-05T10:13:41.516Z,25.07
2019-04-05T10:14:43.852Z,25.06
2019-04-05T10:15:45.563Z,25.13
2019-04-05T10:16:49.041Z,25.12
2019-04-05T10:17:51.258Z,25.15
2019-04-05T10:18:53.337Z,25.16
2019-04-05T10:19:55.701Z,25.18
2019-04-05T10:20:57.947Z,25.20
2019-04-05T10:21:59.669Z,25.21
2019-04-05T10:23:01.900Z,25.25
2019-04-05T10:24:04.493Z,25.26
2019-04-05T10:25:08.109Z,25.25
2019-04-05T10:26:10.410Z,25.22
2019-04-05T10:27:12.360Z,25.24
2019-04-05T10:28:14.286Z,25.21
2019-04-05T10:29:16.598Z,25.21
2019-04-05T10:30:19.604Z,25.21
2019-04-05T10:31:22.556Z,25.23
2019-04-05T10:32:24.638Z,25.27
2019-04-05T10:33:26.538Z,25.27
2019-04-05T10:34:28.475Z,25.27
2019-04-05T10:35:30.856Z,25.25
2019-04-05T10:36:33.371Z,25.24
2019-04-05T10:37:35.452Z,25.21
2019-04-05T10:38:38.709Z,25.25
2019-04-05T10:39:41.275Z,25.28
2019-04-05T10:40:43.497Z,25.30
2019-04-05T10:41:45.594Z,25.33
2019-04-05T10:42:47.740Z,25.31
2019-04-05T10:43:50.216Z,25.33
2019-04-05T10:44:52.435Z,25.33
2019-04-05T10:45:55.770Z,25.33
2019-04-05T10:46:58.265Z,25.30
2019-04-05T10:48:00.902Z,25.30
2019-04-05T10:49:02.900Z,25.31
2019-04-05T10:50:08.265Z,25.30
2019-04-05T10:51:10.645Z,25.31
2019-04-05T10:52:12.886Z,25.34
2019-04-05T10:53:15.180Z,25.32
2019-04-05T10:54:17.283Z,25.33
2019-04-05T10:55:19.686Z,25.36
2019-04-05T10:56:21.985Z,25.35
2019-04-05T10:57:24.500Z,25.38
2019-04-05T10:58:27.312Z,25.35
2019-04-05T10:59:29.431Z,25.29
2019-04-05T11:00:31.861Z,25.30
2019-04-05T11:01:34.337Z,25.33
2019-04-05T11:02:36.668Z,25.36
2019-04-05T11:03:38.378Z,25.36
2019-04-05T11:04:40.730Z,25.32
2019-04-05T11:05:44.543Z,25.34
2019-04-05T11:06:47.085Z,25.30
2019-04-05T11:07:49.281Z,25.32
2019-04-05T11:08:51.479Z,25.31
2019-04-05T11:09:53.771Z,25.29
2019-04-05T11:10:56.025Z,25.32
2019-04-05T11:11:58.290Z,25.34
2019-04-05T11:13:00.641Z,25.32
2019-04-05T11:14:13.240Z,25.33
2019-04-05T11:15:08.009Z,25.32
2019-04-05T11:16:11.723Z,25.37
2019-04-05T11:17:14.253Z,25.34
2019-04-05T11:18:16.544Z,25.32
2019-04-05T11:19:20.580Z,25.32
2019-04-05T11:20:23.003Z,25.36
2019-04-05T11:21:25.131Z,25.36
2019-04-05T11:22:27.240Z,25.39
2019-04-05T11:23:29.706Z,25.35
2019-04-05T11:24:31.451Z,25.37
2019-04-05T11:25:33.302Z,25.39
2019-04-05T11:26:35.468Z,25.43
2019-04-05T11:27:37.781Z,25.41
2019-04-05T11:28:39.546Z,25.45
2019-04-05T11:29:42.054Z,25.47
2019-04-05T11:30:45.645Z,25.43
2019-04-05T11:31:56.858Z,25.40
2019-04-05T11:32:52.420Z,25.39
2019-04-05T11:33:54.757Z,25.46
2019-04-05T11:34:57.328Z,25.47
2019-04-05T11:35:59.861Z,25.46
2019-04-05T11:37:02.931Z,25.43
2019-04-05T11:38:06.659Z,25.43
2019-04-05T11:39:09.184Z,25.42
2019-04-05T11:40:11.859Z,25.48
2019-04-05T11:41:14.753Z,25.46
2019-04-05T11:42:19.342Z,25.51
2019-04-05T11:43:26.213Z,25.53
2019-04-05T11:44:28.082Z,25.49
2019-04-05T11:45:33.384Z,25.51
2019-04-05T11:46:37.499Z,25.51
2019-04-05T11:47:40.164Z,25.50
2019-04-05T11:48:43.108Z,25.51
2019-04-05T11:49:46.915Z,25.50
2019-04-05T11:50:49.089Z,25.51
2019-04-05T11:51:51.716Z,25.52
2019-04-05T11:52:54.154Z,25.54
2019-04-05T11:53:57.368Z,25.52
2019-04-05T11:54:59.372Z,25.53
2019-04-05T11:56:13.911Z,25.52
2019-04-05T11:57:05.726Z,25.51
2019-04-05T11:58:07.503Z,25.53
2019-04-05T11:59:13.383Z,25.56
2019-04-05T12:00:20.455Z,25.54
2019-04-05T12:01:24.811Z,25.55
2019-04-05T12:02:29.143Z,25.57
2019-04-05T12:03:32.815Z,25.56
2019-04-05T12:04:35.264Z,25.58
2019-04-05T12:05:37.417Z,25.55
2019-04-05T12:06:39.708Z,25.56
2019-04-05T12:07:41.848Z,25.55
2019-04-05T12:08:44.600Z,25.58
2019-04-05T12:09:48.051Z,25.57
2019-04-05T12:10:51.069Z,25.58
2019-04-05T12:11:54.412Z,25.61
2019-04-05T12:12:56.503Z,25.60
2019-04-05T12:13:58.905Z,25.60
2019-04-05T12:15:01.155Z,25.59
2019-04-05T12:16:06.160Z,25.60
2019-04-05T12:17:09.732Z,25.61
2019-04-05T12:18:12.167Z,25.63
2019-04-05T12:19:14.923Z,25.64
2019-04-05T12:20:18.043Z,25.62
2019-04-05T12:21:21.054Z,25.60
2019-04-05T12:22:23.741Z,25.61
2019-04-05T12:23:25.843Z,25.60
2019-04-05T12:24:28.450Z,25.61
2019-04-05T12:25:33.437Z,25.60
2019-04-05T12:26:35.215Z,25.64
2019-04-05T12:27:37.259Z,25.66
2019-04-05T12:28:39.247Z,25.66
2019-04-05T12:29:43.186Z,25.66
2019-04-05T12:30:46.846Z,25.70
2019-04-05T12:31:49.206Z,25.70
2019-04-05T12:32:51.828Z,25.65
2019-04-05T12:33:53.537Z,25.61
2019-04-05T12:34:55.689Z,25.63
2019-04-05T12:35:58.205Z,25.63
2019-04-05T12:37:00.515Z,25.66
2019-04-05T12:38:03.204Z,25.67
2019-04-05T12:39:08.163Z,25.69
2019-04-05T12:40:11.259Z,25.72
2019-04-05T12:41:14.076Z,25.72
2019-04-05T12:42:16.237Z,25.70
2019-04-05T12:43:18.675Z,25.70
2019-04-05T12:44:20.805Z,25.66
2019-04-05T12:45:25.770Z,25.65
2019-04-05T12:46:29.194Z,25.69
2019-04-05T12:47:33.973Z,25.68
2019-04-05T12:48:36.091Z,25.72
2019-04-05T12:49:38.506Z,25.72
2019-04-05T12:50:44.494Z,25.73
2019-04-05T12:51:45.567Z,25.70
2019-04-05T12:52:48.215Z,25.68
2019-04-05T12:53:50.338Z,25.66
2019-04-05T12:54:54.855Z,25.67
2019-04-05T12:55:57.131Z,25.68
2019-04-05T12:56:59.712Z,25.64
2019-04-05T12:58:01.660Z,25.67
2019-04-05T12:59:04.221Z,25.68
2019-04-05T13:00:13.300Z,25.71
2019-04-05T13:01:16.055Z,25.72
2019-04-05T13:02:23.589Z,25.74
2019-04-05T13:03:22.072Z,25.75
2019-04-05T13:04:24.365Z,25.79
2019-04-05T13:05:26.570Z,25.75
2019-04-05T13:06:28.876Z,25.76
2019-04-05T13:07:31.417Z,25.76
2019-04-05T13:08:33.685Z,25.78
2019-04-05T13:09:35.505Z,25.78
2019-04-05T13:10:37.891Z,25.76
2019-04-05T13:11:41.914Z,25.77
2019-04-05T13:12:43.984Z,25.77
2019-04-05T13:13:46.135Z,25.78
2019-04-05T13:14:48.325Z,25.79
2019-04-05T13:15:50.305Z,25.80
2019-04-05T13:16:52.607Z,25.83
2019-04-05T13:17:54.697Z,25.85
2019-04-05T13:19:00.452Z,25.86
2019-04-05T13:20:03.273Z,25.85
2019-04-05T13:21:14.423Z,25.86
2019-04-05T13:22:09.131Z,25.86
2019-04-05T13:23:11.375Z,25.82
2019-04-05T13:24:13.985Z,25.82
2019-04-05T13:25:16.471Z,25.84
2019-04-05T13:26:18.921Z,25.84
2019-04-05T13:27:20.965Z,25.86
2019-04-05T13:28:22.980Z,25.86
2019-04-05T13:29:25.287Z,25.86
2019-04-05T13:30:27.927Z,25.83